AirNav   Air Wisconsin pilot careers
 
 1573 users online  

CL35 Warner Springs Gliderport
Warner Springs, California, USA

GOING TO WARNER SPRINGS?


FAA INFORMATION EFFECTIVE 07 DECEMBER 2017

Location

FAA Identifier: CL35
Lat/Long: 33-17-04.2100N / 116-40-10.7650W
33-17.070167N / 116-40.179417W
33.2845028 / -116.6696569
(estimated)
Elevation: 2880 ft. / 878 m (estimated)
Variation: 13E (1985)
From city: 2 miles E of WARNER SPRINGS, CA
Time zone: UTC -8 (UTC -7 during Daylight Saving Time)
Zip code: 92086

Gliderport Operations

Gliderport use: Private use. Permission required prior to landing
Activation date: 10/1984
Control tower: no
ARTCC: LOS ANGELES CENTER
FSS: SAN DIEGO FLIGHT SERVICE STATION
Attendance: 0900-1700
Wind indicator: yes
Segmented circle: yes
Landing fee: yes

Gliderport Communications

UNICOM: 122.8
WX AWOS-1 at L08 (18 nm E): 126.575 (760-767-3308)
WX ASOS at RNM (19 nm SW): 132.025 (760-789-0736)

Nearby radio navigation aids

VOR radial/distance  VOR name  Freq  Var
JLIr319/9.6JULIAN VORTAC114.0015E
TRMr218/32.8THERMAL VORTAC116.2013E
PSPr186/37.1PALM SPRINGS VORTAC115.5013E
OCNr071/37.6OCEANSIDE VORTAC115.3015E
HDFr125/(39.2)HOMELAND VOR113.4014E

Gliderport Services

Runway Information

Runway 8/26

Dimensions: 3500 x 70 ft. / 1067 x 21 m
Surface: asphalt
RUNWAY 8  RUNWAY 26
Latitude: 33-17.060333N33-17.080000N
Longitude: 116-40.522667W116-39.836167W
Elevation: 2873.0 ft.2914.0 ft.
Traffic pattern: leftleft
Obstructions: none200 ft. hill, 5200 ft. from runway

Gliderport Ownership and Management from official FAA records

Ownership: Privately-owned
Owner: WARNER SPRINGS RANCH RESORT, LLC
31930 HWY 79
WARNER SPRINGS, CA 92086
Phone 760-782-4200
SKY SAILING 31930 HWY 79.
Manager: BRET WILLAT
SKY SAILING 31930 HWY 79
WARNER SPRINGS, CA 92086
Phone 760-782-0404
LEASEE.

Gliderport Operational Statistics

Aircraft based on the field: 80
Single engine airplanes: 10
Gliders airplanes: 70
    

Instrument Procedures

There are no published instrument procedures at CL35.

Some nearby airports with instrument procedures:

L08 - Borrego Valley Airport (18 nm E)
KRNM - Ramona Airport (19 nm SW)
F70 - French Valley Airport (29 nm NW)
L18 - Fallbrook Community Airpark (29 nm W)
KSEE - Gillespie Field Airport (31 nm SW)
 
Loc | Ops | Rwys | IFR | FBO | Links
Com | Nav | Svcs | Stats | Notes


 
Area around CL35 (Warner Springs Gliderport)
 
Road maps at: MapQuest Bing Google
 
Aerial photo
WARNING: Photo may not be current or correct
Aerial photo of CL35 (Warner Springs Gliderport)
Photo by Steve Lupinacci
Photo taken 27-May-2008

Do you have a better or more recent aerial photo of Warner Springs Gliderport that you would like to share? If so, please send us your photo.

 
Sectional chart

 
Airport distance calculator
Flying to Warner Springs Gliderport? Find the distance to fly.

From to CL35

Sunrise and sunset
Times for 12-Dec-2017
 Local
(UTC-8)
 Zulu
(UTC)
Morning civil twilight06:1514:15
Sunrise06:4214:42
Sunset16:3900:39
Evening civil twilight17:0601:06

Current date and time
Zulu (UTC)  12-Dec-2017 17:41:17
Local (UTC-8)  12-Dec-2017 09:41:17
 
METAR
KRNM 
20nm SW 
121653Z VRB03KT 10SM CLR 21/M14 A3020 RMK AO2 SLP216 T02111144
KF70 
29nm NW 
121715Z AUTO 01005KT 10SM CLR 16/M14 A3023 RMK AO1
KL18 
29nm W 
121715Z AUTO 00000KT 10SM CLR 20/M08 A3021 RMK AO2
KSEE 
32nm SW 
121647Z 00000KT 10SM SKC 09/M09 A3021
KCRQ 
32nm W 
121653Z AUTO 00000KT 10SM CLR 21/M10 A3018 RMK AO2 SLP218 T02061100
KTRM 
33nm NE 
121652Z AUTO 00000KT 10SM CLR 16/M09 A3022 RMK AO2 SLP235 T01561094
KPSP 
33nm N 
121653Z VRB04KT 10SM CLR 20/M11 A3025 RMK AO2 SLP244 T02001106
KNFG 
33nm W 
121555Z 00000KT 10SM CLR 09/M09 A3019 RMK A02 SLP221 T00941089
KNKX 
34nm SW 
121655Z 00000KT 10SM FEW250 24/M13 A3019 RMK AO2 SLP218 T02391133
KOKB 
34nm W 
121652Z AUTO 05007KT 10SM CLR 17/M09 A3018 RMK AO2 SLP220 T01671089
TAF
KCRQ 
32nm W 
121120Z 1212/1312 VRB06KT P6SM SKC
KTRM 
33nm NE 
121120Z 1212/1312 VRB06KT P6SM SCT250= TAF KPSP 121120Z 1212/1312 VRB06KT P6SM SKC
KPSP 
33nm N 
121120Z 1212/1312 VRB06KT P6SM SKC
KNFG 
33nm W 
1215/1315 VRB05KT 9999 SCT200 QNH3016INS BECMG 1217/1219 23008KT 9999 SCT200 SCT250 QNH3003INS BECMG 1223/1301 VRB05KT 9999 SCT200 QNH3000INS T03/1215Z T28/1222Z
KNKX 
34nm SW 
1215/1315 08008KT 9999 SKC QNH3015INS BECMG 1216/1218 VRB05KT 9999 FEW250 QNH3016INS FM121830 31009KT 9999 SCT250 QNH3002INS BECMG 1303/1305 06008KT 999 SCT250 QNH2998INS T28/1222Z T11/1314Z
NOTAMs
Click for the latest NOTAMs
NOTAMs are issued by the DoD/FAA and will open in a separate window not controlled by AirNav.

 

 
 

Would you like to see your business listed on this page?

 If your business provides an interesting product or service to pilots, flight crews, aircraft, or users of the Warner Springs Gliderport, you should consider listing it here.  To start the listing process, click on the button below
 
Add a business
 

Other Pages about Warner Springs Gliderport

www.agcsc.org/warner_springs_info.html
 
Update a link
 
Copyright © AirNav, LLC. All rights reserved. Privacy Policy  Contact